Time;durP1;ratioP1;P1;durP2;ratioP2;P2;SDS_P1;SDS_P2;PMS_P1;PMS_P2;Temp;Humidity;BMP_temperature;BMP_pressure;BME280_temperature;BME280_humidity;BME280_pressure;Samples;Min_cycle;Max_cycle;Signal;HPM_P1;HPM_P2
2023/08/23 01:31:48;;;;;;;20.27;9.90;;;;;;;15.33;100.00;96084.09;7428435;19;20432;-95
2023/08/23 01:35:02;;;;;;;18.87;10.40;;;;;;;16.03;100.00;96186.63;7428760;19;20377;-95
2023/08/23 01:37:41;;;;;;;25.07;11.00;;;;;;;15.99;100.00;96188.47;7428637;19;20381;-95
2023/08/23 01:41:01;;;;;;;21.43;10.60;;;;;;;15.56;100.00;96149.84;7426514;19;20444;-94
2023/08/23 01:58:25;;;;;;;33.87;13.17;;;;;;;17.21;100.00;96380.81;7408762;19;20452;-96
2023/08/23 02:01:10;;;;;;;29.63;11.60;;;;;;;16.13;100.00;96201.19;7431069;19;20388;-96
2023/08/23 02:03:41;;;;;;;18.60;10.23;;;;;;;15.67;100.00;96132.13;7437619;19;20352;-96
2023/08/23 02:06:11;;;;;;;29.10;10.77;;;;;;;16.17;100.00;96210.78;7436233;19;20384;-96
2023/08/23 02:08:47;;;;;;;20.13;9.50;;;;;;;15.02;100.00;96063.16;7434576;19;20404;-96
2023/08/23 02:11:28;;;;;;;21.30;10.50;;;;;;;14.71;100.00;96090.88;7435023;19;20384;-95
2023/08/23 02:35:08;;;;;;;17.00;9.43;;;;;;;14.96;100.00;96053.97;7405136;19;20440;-96
2023/08/23 02:37:45;;;;;;;12.47;9.07;;;;;;;15.85;100.00;96190.97;7437754;19;20404;-95
2023/08/23 02:40:28;;;;;;;17.23;9.63;;;;;;;14.97;100.00;96047.53;7431803;19;20432;-94
2023/08/23 02:43:09;;;;;;;13.90;8.60;;;;;;;14.49;100.00;96061.28;7433706;19;20377;-95
2023/08/23 02:45:39;;;;;;;18.47;8.87;;;;;;;15.46;100.00;96283.69;7437427;19;20391;-95
2023/08/23 02:48:09;;;;;;;14.67;9.43;;;;;;;14.83;100.00;96209.72;7433952;19;20381;-95
2023/08/23 02:57:29;;;;;;;14.03;8.43;;;;;;;13.95;100.00;96034.97;7412654;19;20444;-95
2023/08/23 03:00:27;;;;;;;16.63;8.70;;;;;;;15.14;100.00;96171.38;7434298;19;20432;-95
2023/08/23 03:03:13;;;;;;;16.37;8.17;;;;;;;15.25;100.00;96181.03;7430660;19;20392;-95
2023/08/23 03:06:03;;;;;;;19.53;9.20;;;;;;;14.90;100.00;96092.66;7431785;19;20413;-95
2023/08/23 03:14:39;;;;;;;13.57;9.07;;;;;;;13.53;100.00;96006.53;7435008;19;20432;-95
2023/08/23 03:17:31;;;;;;;11.00;7.90;;;;;;;15.08;100.00;96277.41;7434878;19;20409;-95
2023/08/23 03:29:53;;;;;;;12.97;7.47;;;;;;;14.14;100.00;96063.38;7434650;19;20424;-95
2023/08/23 03:32:38;;;;;;;15.67;9.67;;;;;;;13.83;100.00;96040.44;7435940;19;20426;-95
2023/08/23 03:35:15;;;;;;;13.67;8.07;;;;;;;13.81;100.00;96040.03;7434515;19;20424;-96
2023/08/23 03:37:50;;;;;;;11.97;8.20;;;;;;;14.02;100.00;96061.66;7435418;19;20389;-95
2023/08/23 03:40:22;;;;;;;8.70;6.83;;;;;;;15.54;100.00;96357.31;7432442;19;20409;-96
2023/08/23 03:43:00;;;;;;;11.33;8.10;;;;;;;13.68;100.00;96052.72;7435770;19;20376;-96
2023/08/23 03:45:51;;;;;;;11.27;7.67;;;;;;;13.91;100.00;96076.66;7435017;19;20440;-95
2023/08/23 04:09:04;;;;;;;8.97;8.07;;;;;;;15.36;100.00;96293.09;7414436;19;20455;-96
2023/08/23 04:58:14;;;;;;;10.60;7.33;;;;;;;14.36;100.00;96192.91;7428790;19;20388;-95
2023/08/23 05:00:45;;;;;;;9.67;8.00;;;;;;;14.75;100.00;96201.59;7431813;19;20423;-96
2023/08/23 05:03:13;;;;;;;12.67;8.07;;;;;;;13.89;100.00;96079.69;7432005;19;20377;-95
2023/08/23 05:26:11;;;;;;;9.83;7.80;;;;;;;15.57;100.00;96252.66;7405947;19;20452;-96
2023/08/23 05:28:41;;;;;;;7.60;6.90;;;;;;;14.33;100.00;96089.13;7429575;19;20420;-96
2023/08/23 05:31:22;;;;;;;7.80;7.00;;;;;;;14.54;100.00;96097.47;7432065;19;20405;-96
2023/08/23 05:33:52;;;;;;;8.90;7.97;;;;;;;14.81;100.00;96090.25;7430607;19;20405;-95
2023/08/23 05:36:33;;;;;;;12.00;7.70;;;;;;;16.10;100.00;96242.69;7431070;19;20392;-96
2023/08/23 05:39:04;;;;;;;16.53;7.97;;;;;;;15.19;100.00;96097.25;7437663;19;20484;-96
2023/08/23 05:41:36;;;;;;;8.30;7.50;;;;;;;15.41;100.00;96103.59;7432105;19;20400;-96
2023/08/23 05:44:07;;;;;;;8.60;7.90;;;;;;;16.04;100.00;96227.38;7438879;19;20400;-96
2023/08/23 05:46:35;;;;;;;9.23;8.33;;;;;;;16.34;100.00;96219.31;7437548;19;20384;-96
2023/08/23 05:49:17;;;;;;;8.17;6.80;;;;;;;15.61;100.00;96090.91;7437987;19;20455;-96
2023/08/23 05:51:50;;;;;;;8.13;7.43;;;;;;;16.79;100.00;96223.59;7437576;19;20384;-96
2023/08/23 05:54:26;;;;;;;7.50;6.43;;;;;;;17.09;100.00;96234.13;7436482;19;20400;-96
2023/08/23 06:11:29;;;;;;;8.80;7.90;;;;;;;16.89;100.00;96169.50;7440290;19;20411;-96
2023/08/23 06:14:19;;;;;;;9.20;7.90;;;;;;;16.82;100.00;96114.13;7436611;19;20437;-96
2023/08/23 06:17:01;;;;;;;9.23;8.50;;;;;;;17.93;100.00;96353.53;7436159;19;20392;-96
2023/08/23 06:19:31;;;;;;;12.57;9.90;;;;;;;18.56;100.00;96423.84;7435910;19;20463;-96
2023/08/23 06:25:00;;;;;;;9.93;9.13;;;;;;;16.52;100.00;96111.59;7364553;19;20451;-96
2023/08/23 06:27:45;;;;;;;13.00;9.40;;;;;;;17.69;100.00;96290.72;7434689;19;20412;-96
2023/08/23 06:48:57;;;;;;;11.57;8.60;;;;;;;17.87;100.00;96210.56;7410394;19;20455;-95
2023/08/23 07:40:46;;;;;;;7.90;7.17;;;;;;;21.77;100.00;96335.47;7357207;19;20443;-94
2023/08/23 07:43:19;;;;;;;7.73;6.63;;;;;;;20.57;100.00;96181.97;7433638;19;20404;-96
2023/08/23 07:45:59;;;;;;;7.47;6.97;;;;;;;20.48;100.00;96168.97;7432764;19;20388;-96
2023/08/23 07:48:27;;;;;;;8.30;7.10;;;;;;;21.63;100.00;96319.41;7431268;19;20388;-96
2023/08/23 08:21:27;;;;;;;9.70;7.60;;;;;;;23.87;100.00;96381.31;7426694;19;20483;-95
2023/08/23 08:24:22;;;;;;;12.00;7.60;;;;;;;23.95;100.00;96347.63;7432480;19;20391;-96
2023/08/23 08:27:01;;;;;;;7.77;7.10;;;;;;;23.53;100.00;96287.00;7431036;19;20447;-95
2023/08/23 08:29:47;;;;;;;8.53;7.37;;;;;;;23.52;100.00;96267.34;7431851;19;20476;-94
2023/08/23 08:32:29;;;;;;;11.50;7.63;;;;;;;23.02;100.00;96191.09;7409819;19;20452;-95
2023/08/23 08:35:02;;;;;;;10.17;6.30;;;;;;;24.15;100.00;96329.47;7431444;19;20421;-95
2023/08/23 08:37:39;;;;;;;9.20;6.43;;;;;;;23.41;100.00;96207.38;7432235;19;20381;-95
2023/08/23 08:40:11;;;;;;;10.33;6.87;;;;;;;22.87;100.00;96198.66;7430831;19;20424;-95
2023/08/23 08:42:41;;;;;;;11.33;7.70;;;;;;;21.36;100.00;96160.53;7433575;19;20406;-95
2023/08/23 08:45:12;;;;;;;10.10;8.50;;;;;;;21.83;100.00;96185.78;7431393;19;20402;-96
2023/08/23 08:47:58;;;;;;;11.07;7.53;;;;;;;23.72;100.00;96482.66;7433731;19;20388;-96
2023/08/23 08:51:02;;;;;;;17.73;7.37;;;;;;;22.70;100.00;96322.50;7430058;19;20385;-96
2023/08/23 08:53:33;;;;;;;9.03;6.17;;;;;;;21.40;100.00;96207.78;7432016;19;20385;-96
2023/08/23 08:56:15;;;;;;;5.93;5.43;;;;;;;20.94;100.00;96165.91;7428769;19;20396;-95
2023/08/23 08:59:25;;;;;;;6.80;6.20;;;;;;;22.75;100.00;96488.44;7427963;19;20424;-96
2023/08/23 09:02:17;;;;;;;6.93;6.23;;;;;;;20.89;100.00;96144.84;7432937;19;20412;-96
2023/08/23 09:04:48;;;;;;;8.37;5.53;;;;;;;21.68;100.00;96162.91;7432265;19;20396;-96
2023/08/23 09:07:26;;;;;;;7.90;6.40;;;;;;;23.37;100.00;96403.69;7430133;19;20383;-96
2023/08/23 09:10:09;;;;;;;6.30;5.00;;;;;;;22.80;100.00;96320.81;7429408;19;20425;-95
2023/08/23 09:12:47;;;;;;;7.10;5.50;;;;;;;24.00;100.00;96357.19;7430847;19;20424;-96
2023/08/23 09:15:23;;;;;;;6.40;5.80;;;;;;;22.67;100.00;96176.97;7433301;19;20388;-96
2023/08/23 09:21:00;;;;;;;5.30;4.83;;;;;;;23.86;100.00;96485.13;7426811;19;20377;-96
2023/08/23 09:55:25;;;;;;;5.13;4.63;;;;;;;22.08;100.00;96223.22;7419007;19;20452;-96
2023/08/23 09:58:13;;;;;;;6.87;5.20;;;;;;;22.34;100.00;96208.25;7429690;19;20384;-96
2023/08/23 10:06:30;;;;;;;6.47;4.73;;;;;;;21.89;100.00;96183.41;7418265;19;20440;-96
2023/08/23 10:09:16;;;;;;;5.13;4.73;;;;;;;23.98;100.00;96484.56;7428246;19;20428;-96
2023/08/23 10:11:55;;;;;;;8.20;4.60;;;;;;;22.02;100.00;96179.00;7430915;19;20413;-96
2023/08/23 10:14:39;;;;;;;4.93;4.43;;;;;;;23.04;100.00;96316.28;7429989;19;20404;-96
2023/08/23 10:17:17;;;;;;;8.93;4.87;;;;;;;22.79;100.00;96326.63;7428237;19;20392;-96
2023/08/23 10:20:14;;;;;;;6.70;4.23;;;;;;;23.28;100.00;96346.75;7429349;19;20404;-96
2023/08/23 10:23:10;;;;;;;6.20;4.70;;;;;;;23.17;100.00;96322.63;7433507;19;20389;-96
2023/08/23 10:28:55;;;;;;;7.60;5.17;;;;;;;24.62;97.48;96483.50;7433289;19;20417;-96
2023/08/23 10:31:52;;;;;;;4.67;4.10;;;;;;;22.53;95.63;96161.78;7434995;19;20397;-95
2023/08/23 10:34:32;;;;;;;7.60;4.80;;;;;;;23.20;93.88;96154.53;7437668;19;20373;-96
2023/08/23 10:37:28;;;;;;;8.60;4.77;;;;;;;23.86;93.11;96212.34;7436703;19;20408;-96
